X  Fermer Données météorologiques d'aviation de Metar     LFSN Nancy-Essey Airport
Température
5°C Température
-3°C Point de rosée
57% Humidité



Vent
11 KM/H
7 MPH
3 M/S
6 KTS



40°
NE
Conditions actuelles

Clair Clair
Pression 1035.92 (hPa) - 30.59 (inHg)
Visibilité 6.2 (mile) - 10 (km)
Aéroport
Code de l'aéroport LFSN

Emplacement: Nancy-Essey Airport
Distance: 8 (km)

Metar:
LFSN 071400Z AUTO 04006KT 010V100 CAVOK 05/M03 Q1036

Temps: 02-07-2023 15:00 CET